createdAt,value
2023-04-16T00:03:19.190Z,77.86
2023-04-16T00:08:12.159Z,77.91
2023-04-16T00:13:04.903Z,77.99
2023-04-16T00:17:57.734Z,78.12
2023-04-16T00:22:50.450Z,78.22
2023-04-16T00:27:43.175Z,78.39
2023-04-16T00:32:35.939Z,78.43
2023-04-16T00:37:28.817Z,78.48
2023-04-16T00:42:21.513Z,78.60
2023-04-16T00:47:14.588Z,78.74
2023-04-16T00:52:07.631Z,78.81
2023-04-16T00:57:00.521Z,78.90
2023-04-16T01:01:53.385Z,79.13
2023-04-16T01:06:46.082Z,79.26
2023-04-16T01:11:40.204Z,79.12
2023-04-16T01:16:33.687Z,79.19
2023-04-16T01:21:26.738Z,79.40
2023-04-16T01:26:20.007Z,79.21
2023-04-16T01:31:12.854Z,79.30
2023-04-16T01:36:19.268Z,79.65
2023-04-16T01:41:11.951Z,79.40
2023-04-16T01:46:13.981Z,79.56
2023-04-16T01:51:06.896Z,79.38
2023-04-16T01:55:59.588Z,79.52
2023-04-16T02:00:52.434Z,79.46
2023-04-16T02:05:45.742Z,79.68
2023-04-16T02:10:38.402Z,79.55
2023-04-16T02:15:31.386Z,79.55
2023-04-16T02:20:24.670Z,79.56
2023-04-16T02:25:20.209Z,79.69
2023-04-16T02:30:13.786Z,79.74
2023-04-16T02:35:06.882Z,79.58
2023-04-16T02:39:59.586Z,79.73
2023-04-16T02:44:52.920Z,79.57
2023-04-16T02:49:45.668Z,79.63
2023-04-16T02:54:38.528Z,79.57
2023-04-16T02:59:31.226Z,79.73
2023-04-16T03:04:24.113Z,79.74
2023-04-16T03:09:17.386Z,79.77
2023-04-16T03:14:10.187Z,79.87
2023-04-16T03:19:02.868Z,79.86
2023-04-16T03:23:56.190Z,79.70
2023-04-16T03:28:48.922Z,79.98
2023-04-16T03:33:42.710Z,79.97
2023-04-16T03:38:35.724Z,80.18
2023-04-16T03:43:28.793Z,80.14
2023-04-16T03:48:22.041Z,80.01
2023-04-16T03:53:15.144Z,80.22
2023-04-16T03:58:08.317Z,80.20
2023-04-16T04:03:01.678Z,80.08
2023-04-16T04:07:54.746Z,80.27
2023-04-16T04:12:47.623Z,80.46
2023-04-16T04:17:40.444Z,80.27
2023-04-16T04:22:33.375Z,80.51
2023-04-16T04:27:26.318Z,80.31
2023-04-16T04:32:19.202Z,80.43
2023-04-16T04:37:13.635Z,80.38
2023-04-16T04:42:06.442Z,80.00
2023-04-16T04:46:59.213Z,80.03
2023-04-16T04:51:52.061Z,80.03
2023-04-16T04:56:46.645Z,80.11
2023-04-16T05:01:40.205Z,79.89
2023-04-16T05:06:32.949Z,79.78
2023-04-16T05:11:25.931Z,79.54
2023-04-16T05:16:18.629Z,79.33
2023-04-16T05:21:11.351Z,79.05
2023-04-16T05:26:04.041Z,79.02
2023-04-16T05:30:56.851Z,78.93
2023-04-16T05:35:49.639Z,78.72
2023-04-16T05:40:42.481Z,78.57
2023-04-16T05:45:39.816Z,78.31
2023-04-16T05:50:32.525Z,78.19
2023-04-16T05:55:25.211Z,77.77
2023-04-16T06:00:18.133Z,77.68
2023-04-16T06:05:11.071Z,77.24
2023-04-16T06:10:03.781Z,77.32
2023-04-16T06:14:56.520Z,76.93
2023-04-16T06:19:49.239Z,76.47
2023-04-16T06:24:42.034Z,76.05
2023-04-16T06:29:41.147Z,76.20
2023-04-16T06:34:34.691Z,75.51
2023-04-16T06:39:27.718Z,74.94
2023-04-16T06:44:20.415Z,74.66
2023-04-16T06:49:13.168Z,74.34
2023-04-16T06:54:05.902Z,74.51
2023-04-16T06:59:00.993Z,74.02
2023-04-16T07:03:54.044Z,74.11
2023-04-16T07:08:47.006Z,74.10
2023-04-16T07:13:39.684Z,73.74
2023-04-16T07:18:32.874Z,73.59
2023-04-16T07:23:25.550Z,73.32
2023-04-16T07:28:18.285Z,73.07
2023-04-16T07:33:11.151Z,72.85
2023-04-16T07:38:03.888Z,73.05
2023-04-16T07:42:56.801Z,72.71
2023-04-16T07:47:49.560Z,72.46
2023-04-16T07:52:43.740Z,72.45
2023-04-16T07:57:37.378Z,72.22
2023-04-16T08:02:30.336Z,72.02
2023-04-16T08:07:23.197Z,71.95
2023-04-16T08:12:16.353Z,72.19
2023-04-16T08:17:09.356Z,72.06
2023-04-16T08:22:02.074Z,71.64
2023-04-16T08:26:55.916Z,71.65
2023-04-16T08:31:53.783Z,71.33
2023-04-16T08:36:46.577Z,70.80
2023-04-16T08:41:40.248Z,70.28
2023-04-16T08:46:34.848Z,70.60
2023-04-16T08:51:31.302Z,70.25
2023-04-16T08:56:27.041Z,69.77
2023-04-16T09:01:20.165Z,68.98
2023-04-16T09:06:56.660Z,68.55
2023-04-16T09:11:54.093Z,68.11
2023-04-16T09:16:47.839Z,67.63
2023-04-16T09:21:42.395Z,67.47
2023-04-16T09:26:35.594Z,67.23
2023-04-16T09:31:28.369Z,66.72
2023-04-16T09:36:24.355Z,66.41
2023-04-16T09:41:17.875Z,66.27
2023-04-16T09:46:12.476Z,66.24
2023-04-16T09:51:06.992Z,65.47
2023-04-16T09:55:59.721Z,65.38
2023-04-16T10:01:12.178Z,65.48
2023-04-16T10:06:08.043Z,64.93
2023-04-16T10:11:00.933Z,64.91
2023-04-16T10:15:53.641Z,64.81
2023-04-16T10:20:46.745Z,64.73
2023-04-16T10:25:39.983Z,64.58
2023-04-16T10:30:32.945Z,64.18
2023-04-16T10:35:26.847Z,64.10
2023-04-16T10:40:26.921Z,63.27
2023-04-16T10:45:19.610Z,63.01
2023-04-16T10:50:18.676Z,62.86
2023-04-16T10:55:17.762Z,62.91
2023-04-16T11:00:23.311Z,62.84
2023-04-16T11:05:16.037Z,62.12
2023-04-16T11:10:13.910Z,62.32
2023-04-16T11:15:07.968Z,62.37
2023-04-16T11:20:00.672Z,61.85
2023-04-16T11:24:57.365Z,61.16
2023-04-16T11:30:04.337Z,61.38
2023-04-16T11:34:57.027Z,61.50
2023-04-16T11:39:51.046Z,61.73
2023-04-16T11:44:45.057Z,61.59
2023-04-16T11:49:37.760Z,61.26
2023-04-16T11:54:34.811Z,60.91
2023-04-16T11:59:28.418Z,59.67
2023-04-16T12:04:22.470Z,59.76
2023-04-16T12:09:25.373Z,58.63
2023-04-16T12:14:18.191Z,58.11
2023-04-16T12:19:12.978Z,57.40
2023-04-16T12:24:06.550Z,57.35
2023-04-16T12:29:15.431Z,57.39
2023-04-16T12:34:08.495Z,57.30
2023-04-16T12:39:01.219Z,56.66
2023-04-16T12:43:53.920Z,56.03
2023-04-16T12:48:46.695Z,55.07
2023-04-16T12:53:39.426Z,54.83
2023-04-16T12:58:32.127Z,55.52
2023-04-16T13:03:25.052Z,55.30
2023-04-16T13:08:17.875Z,55.73
2023-04-16T13:13:10.535Z,56.32
2023-04-16T13:18:03.378Z,56.88
2023-04-16T13:22:56.172Z,56.64
2023-04-16T13:27:48.874Z,56.27
2023-04-16T13:32:41.795Z,55.84
2023-04-16T13:37:34.500Z,55.62
2023-04-16T13:42:28.682Z,56.33
2023-04-16T13:47:21.540Z,57.02
2023-04-16T13:52:14.625Z,56.06
2023-04-16T13:57:07.468Z,54.54
2023-04-16T14:02:00.440Z,54.17
2023-04-16T14:06:53.217Z,54.05
2023-04-16T14:11:46.016Z,52.65
2023-04-16T14:16:38.842Z,52.47
2023-04-16T14:21:32.357Z,53.18
2023-04-16T14:26:25.484Z,53.35
2023-04-16T14:31:20.084Z,53.89
2023-04-16T14:36:12.932Z,54.22
2023-04-16T14:41:05.660Z,54.33
2023-04-16T14:45:58.801Z,54.44
2023-04-16T14:50:51.626Z,54.91
2023-04-16T14:55:44.320Z,54.66
2023-04-16T15:00:37.073Z,55.23
2023-04-16T15:05:31.604Z,55.50
2023-04-16T15:10:24.362Z,55.11
2023-04-16T15:15:17.688Z,55.07
2023-04-16T15:20:10.637Z,55.66
2023-04-16T15:25:03.446Z,56.24
2023-04-16T15:29:56.147Z,56.52
2023-04-16T15:34:48.844Z,56.42
2023-04-16T15:39:41.723Z,56.03
2023-04-16T15:44:34.577Z,56.20
2023-04-16T15:49:31.417Z,55.60
2023-04-16T15:54:24.636Z,55.69
2023-04-16T15:59:18.058Z,56.00
2023-04-16T16:04:10.983Z,56.27
2023-04-16T16:09:04.051Z,56.44
2023-04-16T16:13:56.741Z,57.01
2023-04-16T16:18:49.436Z,57.18
2023-04-16T16:23:42.681Z,57.18
2023-04-16T16:28:37.694Z,57.26
2023-04-16T16:33:30.737Z,57.43
2023-04-16T16:38:23.766Z,57.66
2023-04-16T16:43:16.655Z,57.76
2023-04-16T16:48:09.896Z,58.10
2023-04-16T16:53:02.872Z,58.38
2023-04-16T16:57:56.223Z,58.63
2023-04-16T17:02:51.355Z,58.98
2023-04-16T17:07:44.329Z,59.48
2023-04-16T17:12:37.003Z,59.82
2023-04-16T17:17:29.823Z,60.24
2023-04-16T17:22:22.898Z,60.57
2023-04-16T17:27:15.598Z,60.99
2023-04-16T17:32:08.653Z,61.39
2023-04-16T17:37:01.560Z,61.64
2023-04-16T17:41:54.461Z,62.04
2023-04-16T17:46:47.297Z,62.32
2023-04-16T17:51:41.238Z,62.76
2023-04-16T17:56:34.074Z,63.05
2023-04-16T18:01:27.618Z,63.33
2023-04-16T18:06:20.809Z,63.60
2023-04-16T18:11:13.487Z,63.93
2023-04-16T18:16:07.781Z,64.09
2023-04-16T18:21:00.589Z,64.37
2023-04-16T18:25:54.576Z,64.67
2023-04-16T18:30:47.431Z,64.83
2023-04-16T18:35:41.525Z,65.13
2023-04-16T18:40:38.131Z,65.28
2023-04-16T18:45:31.379Z,65.63
2023-04-16T18:50:24.207Z,65.75
2023-04-16T18:55:16.964Z,66.00
2023-04-16T19:00:12.843Z,66.08
2023-04-16T19:05:06.513Z,66.12
2023-04-16T19:10:00.205Z,66.28
2023-04-16T19:14:52.987Z,66.25
2023-04-16T19:19:45.906Z,66.40
2023-04-16T19:24:39.739Z,66.50
2023-04-16T19:29:36.103Z,66.69
2023-04-16T19:34:28.877Z,66.75
2023-04-16T19:39:21.573Z,66.82
2023-04-16T19:44:14.250Z,66.98
2023-04-16T19:49:06.978Z,67.06
2023-04-16T19:53:59.889Z,67.15
2023-04-16T19:58:52.615Z,67.44
2023-04-16T20:03:45.736Z,67.54
2023-04-16T20:08:38.616Z,67.73
2023-04-16T20:13:31.394Z,67.76
2023-04-16T20:18:24.878Z,68.11
2023-04-16T20:23:18.750Z,68.35
2023-04-16T20:28:11.515Z,68.44
2023-04-16T20:33:04.237Z,68.54
2023-04-16T20:37:57.017Z,68.83
2023-04-16T20:42:52.259Z,68.92
2023-04-16T20:47:45.098Z,69.16
2023-04-16T20:52:38.212Z,69.41
2023-04-16T20:57:32.164Z,69.51
2023-04-16T21:02:25.486Z,69.72
2023-04-16T21:07:18.477Z,69.92
2023-04-16T21:12:11.460Z,70.07
2023-04-16T21:17:04.198Z,70.33
2023-04-16T21:21:56.911Z,70.65
2023-04-16T21:26:49.632Z,70.88
2023-04-16T21:31:42.345Z,70.97
2023-04-16T21:36:35.278Z,71.15
2023-04-16T21:41:28.033Z,71.39
2023-04-16T21:46:20.860Z,71.43
2023-04-16T21:51:14.202Z,71.85
2023-04-16T21:56:07.727Z,72.01
2023-04-16T22:01:00.525Z,71.98
2023-04-16T22:06:01.659Z,72.24
2023-04-16T22:10:57.696Z,72.00
2023-04-16T22:15:51.120Z,72.55
2023-04-16T22:20:43.863Z,72.90
2023-04-16T22:25:36.538Z,73.06
2023-04-16T22:30:29.253Z,73.37
2023-04-16T22:35:22.529Z,73.39
2023-04-16T22:40:16.003Z,73.47
2023-04-16T22:45:09.545Z,73.67
2023-04-16T22:50:02.308Z,73.88
2023-04-16T22:54:55.168Z,73.98
2023-04-16T22:59:48.016Z,74.03
2023-04-16T23:04:40.725Z,74.01
2023-04-16T23:09:34.333Z,74.16
2023-04-16T23:14:27.441Z,74.24
2023-04-16T23:19:20.157Z,74.32
2023-04-16T23:24:12.838Z,74.42
2023-04-16T23:29:05.513Z,74.41
2023-04-16T23:33:58.214Z,74.58
2023-04-16T23:38:51.185Z,74.87
2023-04-16T23:43:43.853Z,74.75
2023-04-16T23:48:36.545Z,74.73
2023-04-16T23:53:29.243Z,74.87
2023-04-16T23:58:21.965Z,75.18
